sensor_id;sensor_type;location;lat;lon;timestamp;P1;durP1;ratioP1;P2;durP2;ratioP2
7517;SDS011;3800;48.922;9.444;2023-05-21T00:00:04;11.93;;;10.70;;
7517;SDS011;3800;48.922;9.444;2023-05-21T00:02:34;10.93;;;9.93;;
7517;SDS011;3800;48.922;9.444;2023-05-21T00:05:02;10.80;;;9.80;;
7517;SDS011;3800;48.922;9.444;2023-05-21T00:07:31;11.63;;;10.43;;
7517;SDS011;3800;48.922;9.444;2023-05-21T00:10:00;12.57;;;10.93;;
7517;SDS011;3800;48.922;9.444;2023-05-21T00:12:28;11.03;;;9.97;;
7517;SDS011;3800;48.922;9.444;2023-05-21T00:14:57;11.60;;;10.33;;
7517;SDS011;3800;48.922;9.444;2023-05-21T00:17:26;11.23;;;10.20;;
7517;SDS011;3800;48.922;9.444;2023-05-21T00:19:54;11.13;;;9.97;;
7517;SDS011;3800;48.922;9.444;2023-05-21T00:22:22;11.13;;;10.03;;
7517;SDS011;3800;48.922;9.444;2023-05-21T00:24:50;10.90;;;9.90;;
7517;SDS011;3800;48.922;9.444;2023-05-21T00:27:19;11.73;;;10.30;;
7517;SDS011;3800;48.922;9.444;2023-05-21T00:29:47;11.37;;;10.27;;
7517;SDS011;3800;48.922;9.444;2023-05-21T00:32:15;11.67;;;10.57;;
7517;SDS011;3800;48.922;9.444;2023-05-21T00:34:43;12.70;;;10.83;;
7517;SDS011;3800;48.922;9.444;2023-05-21T00:37:12;10.97;;;9.87;;
7517;SDS011;3800;48.922;9.444;2023-05-21T00:39:41;11.53;;;10.30;;
7517;SDS011;3800;48.922;9.444;2023-05-21T00:42:09;11.90;;;10.67;;
7517;SDS011;3800;48.922;9.444;2023-05-21T00:44:37;11.67;;;10.47;;
7517;SDS011;3800;48.922;9.444;2023-05-21T00:47:05;11.90;;;10.70;;
7517;SDS011;3800;48.922;9.444;2023-05-21T00:49:34;13.40;;;11.90;;
7517;SDS011;3800;48.922;9.444;2023-05-21T00:52:02;11.73;;;10.57;;
7517;SDS011;3800;48.922;9.444;2023-05-21T00:54:30;11.63;;;10.43;;
7517;SDS011;3800;48.922;9.444;2023-05-21T00:56:59;11.37;;;10.20;;
7517;SDS011;3800;48.922;9.444;2023-05-21T00:59:27;12.53;;;11.33;;
7517;SDS011;3800;48.922;9.444;2023-05-21T01:01:55;11.27;;;10.27;;
7517;SDS011;3800;48.922;9.444;2023-05-21T01:04:23;11.83;;;10.67;;
7517;SDS011;3800;48.922;9.444;2023-05-21T01:06:52;11.50;;;10.50;;
7517;SDS011;3800;48.922;9.444;2023-05-21T01:09:21;11.90;;;10.70;;
7517;SDS011;3800;48.922;9.444;2023-05-21T01:11:49;11.60;;;10.50;;
7517;SDS011;3800;48.922;9.444;2023-05-21T01:14:18;11.37;;;10.27;;
7517;SDS011;3800;48.922;9.444;2023-05-21T01:16:47;11.33;;;10.17;;
7517;SDS011;3800;48.922;9.444;2023-05-21T01:19:16;11.37;;;10.27;;
7517;SDS011;3800;48.922;9.444;2023-05-21T01:21:44;11.77;;;10.67;;
7517;SDS011;3800;48.922;9.444;2023-05-21T01:24:13;11.03;;;9.93;;
7517;SDS011;3800;48.922;9.444;2023-05-21T01:26:40;11.47;;;10.37;;
7517;SDS011;3800;48.922;9.444;2023-05-21T01:29:08;11.10;;;10.00;;
7517;SDS011;3800;48.922;9.444;2023-05-21T01:31:44;10.80;;;9.80;;
7517;SDS011;3800;48.922;9.444;2023-05-21T01:34:25;10.70;;;9.70;;
7517;SDS011;3800;48.922;9.444;2023-05-21T01:36:56;11.13;;;9.93;;
7517;SDS011;3800;48.922;9.444;2023-05-21T01:39:22;11.03;;;10.03;;
7517;SDS011;3800;48.922;9.444;2023-05-21T01:41:50;11.43;;;10.33;;
7517;SDS011;3800;48.922;9.444;2023-05-21T01:44:19;10.97;;;9.97;;
7517;SDS011;3800;48.922;9.444;2023-05-21T01:46:47;10.90;;;9.80;;
7517;SDS011;3800;48.922;9.444;2023-05-21T01:49:16;11.50;;;10.30;;
7517;SDS011;3800;48.922;9.444;2023-05-21T01:51:44;10.80;;;9.80;;
7517;SDS011;3800;48.922;9.444;2023-05-21T01:54:12;11.87;;;10.67;;
7517;SDS011;3800;48.922;9.444;2023-05-21T01:56:40;12.40;;;11.23;;
7517;SDS011;3800;48.922;9.444;2023-05-21T01:59:09;11.47;;;10.30;;
7517;SDS011;3800;48.922;9.444;2023-05-21T02:01:37;11.43;;;10.23;;
7517;SDS011;3800;48.922;9.444;2023-05-21T02:04:06;11.53;;;10.43;;
7517;SDS011;3800;48.922;9.444;2023-05-21T02:06:34;12.63;;;10.03;;
7517;SDS011;3800;48.922;9.444;2023-05-21T02:09:03;10.93;;;9.83;;
7517;SDS011;3800;48.922;9.444;2023-05-21T02:11:31;11.50;;;10.50;;
7517;SDS011;3800;48.922;9.444;2023-05-21T02:13:59;11.57;;;10.37;;
7517;SDS011;3800;48.922;9.444;2023-05-21T02:16:27;10.93;;;9.93;;
7517;SDS011;3800;48.922;9.444;2023-05-21T02:18:56;11.30;;;10.17;;
7517;SDS011;3800;48.922;9.444;2023-05-21T02:21:24;10.83;;;9.77;;
7517;SDS011;3800;48.922;9.444;2023-05-21T02:23:52;11.47;;;10.37;;
7517;SDS011;3800;48.922;9.444;2023-05-21T02:26:20;11.40;;;10.30;;
7517;SDS011;3800;48.922;9.444;2023-05-21T02:28:49;12.40;;;10.50;;
7517;SDS011;3800;48.922;9.444;2023-05-21T02:31:18;10.60;;;9.60;;
7517;SDS011;3800;48.922;9.444;2023-05-21T02:33:46;11.00;;;9.90;;
7517;SDS011;3800;48.922;9.444;2023-05-21T02:36:14;11.67;;;10.47;;
7517;SDS011;3800;48.922;9.444;2023-05-21T02:38:43;12.67;;;11.47;;
7517;SDS011;3800;48.922;9.444;2023-05-21T02:41:11;12.17;;;10.87;;
7517;SDS011;3800;48.922;9.444;2023-05-21T02:43:39;11.73;;;10.53;;
7517;SDS011;3800;48.922;9.444;2023-05-21T02:46:07;11.77;;;10.67;;
7517;SDS011;3800;48.922;9.444;2023-05-21T02:48:36;12.53;;;11.33;;
7517;SDS011;3800;48.922;9.444;2023-05-21T02:51:04;11.80;;;10.70;;
7517;SDS011;3800;48.922;9.444;2023-05-21T02:53:32;12.17;;;11.07;;
7517;SDS011;3800;48.922;9.444;2023-05-21T02:56:00;11.63;;;10.50;;
7517;SDS011;3800;48.922;9.444;2023-05-21T02:58:29;11.50;;;10.27;;
7517;SDS011;3800;48.922;9.444;2023-05-21T03:00:58;12.47;;;11.27;;
7517;SDS011;3800;48.922;9.444;2023-05-21T03:03:27;12.53;;;11.10;;
7517;SDS011;3800;48.922;9.444;2023-05-21T03:05:55;12.00;;;10.80;;
7517;SDS011;3800;48.922;9.444;2023-05-21T03:08:23;12.13;;;10.97;;
7517;SDS011;3800;48.922;9.444;2023-05-21T03:10:52;12.33;;;11.20;;
7517;SDS011;3800;48.922;9.444;2023-05-21T03:13:21;12.47;;;10.97;;
7517;SDS011;3800;48.922;9.444;2023-05-21T03:15:50;12.90;;;11.70;;
7517;SDS011;3800;48.922;9.444;2023-05-21T03:18:18;12.83;;;11.53;;
7517;SDS011;3800;48.922;9.444;2023-05-21T03:20:46;13.20;;;12.00;;
7517;SDS011;3800;48.922;9.444;2023-05-21T03:23:14;12.83;;;11.40;;
7517;SDS011;3800;48.922;9.444;2023-05-21T03:25:43;12.13;;;11.00;;
7517;SDS011;3800;48.922;9.444;2023-05-21T03:28:12;12.30;;;11.17;;
7517;SDS011;3800;48.922;9.444;2023-05-21T03:30:40;12.30;;;11.10;;
7517;SDS011;3800;48.922;9.444;2023-05-21T03:33:08;12.27;;;11.17;;
7517;SDS011;3800;48.922;9.444;2023-05-21T03:35:36;11.93;;;10.73;;
7517;SDS011;3800;48.922;9.444;2023-05-21T03:38:05;11.10;;;10.10;;
7517;SDS011;3800;48.922;9.444;2023-05-21T03:40:33;13.57;;;10.83;;
7517;SDS011;3800;48.922;9.444;2023-05-21T03:43:01;11.80;;;10.60;;
7517;SDS011;3800;48.922;9.444;2023-05-21T03:45:30;12.00;;;10.53;;
7517;SDS011;3800;48.922;9.444;2023-05-21T03:47:59;11.67;;;10.57;;
7517;SDS011;3800;48.922;9.444;2023-05-21T03:50:27;12.50;;;11.40;;
7517;SDS011;3800;48.922;9.444;2023-05-21T03:52:55;12.40;;;11.10;;
7517;SDS011;3800;48.922;9.444;2023-05-21T03:55:24;11.37;;;10.37;;
7517;SDS011;3800;48.922;9.444;2023-05-21T03:57:52;11.97;;;10.70;;
7517;SDS011;3800;48.922;9.444;2023-05-21T04:00:21;11.83;;;10.73;;
7517;SDS011;3800;48.922;9.444;2023-05-21T04:02:50;11.13;;;10.03;;
7517;SDS011;3800;48.922;9.444;2023-05-21T04:05:18;11.57;;;10.47;;
7517;SDS011;3800;48.922;9.444;2023-05-21T04:07:47;10.83;;;9.83;;
7517;SDS011;3800;48.922;9.444;2023-05-21T04:10:15;11.37;;;10.27;;
7517;SDS011;3800;48.922;9.444;2023-05-21T04:12:44;11.10;;;10.10;;
7517;SDS011;3800;48.922;9.444;2023-05-21T04:15:13;11.40;;;10.20;;
7517;SDS011;3800;48.922;9.444;2023-05-21T04:17:41;11.30;;;10.20;;
7517;SDS011;3800;48.922;9.444;2023-05-21T04:20:10;12.93;;;11.73;;
7517;SDS011;3800;48.922;9.444;2023-05-21T04:22:40;12.43;;;11.13;;
7517;SDS011;3800;48.922;9.444;2023-05-21T04:25:09;12.53;;;11.33;;
7517;SDS011;3800;48.922;9.444;2023-05-21T04:27:37;11.63;;;10.53;;
7517;SDS011;3800;48.922;9.444;2023-05-21T04:30:06;13.43;;;12.13;;
7517;SDS011;3800;48.922;9.444;2023-05-21T04:32:34;11.87;;;10.73;;
7517;SDS011;3800;48.922;9.444;2023-05-21T04:35:03;13.33;;;11.33;;
7517;SDS011;3800;48.922;9.444;2023-05-21T04:37:31;13.07;;;11.87;;
7517;SDS011;3800;48.922;9.444;2023-05-21T04:40:00;12.87;;;11.57;;
7517;SDS011;3800;48.922;9.444;2023-05-21T04:42:28;13.27;;;11.23;;
7517;SDS011;3800;48.922;9.444;2023-05-21T04:44:56;13.00;;;11.77;;
7517;SDS011;3800;48.922;9.444;2023-05-21T04:47:25;12.10;;;10.90;;
7517;SDS011;3800;48.922;9.444;2023-05-21T04:49:53;12.37;;;11.17;;
7517;SDS011;3800;48.922;9.444;2023-05-21T04:52:22;13.73;;;12.40;;
7517;SDS011;3800;48.922;9.444;2023-05-21T04:54:50;12.73;;;11.53;;
7517;SDS011;3800;48.922;9.444;2023-05-21T04:57:19;13.23;;;11.83;;
7517;SDS011;3800;48.922;9.444;2023-05-21T04:59:47;12.40;;;11.30;;
7517;SDS011;3800;48.922;9.444;2023-05-21T05:02:16;12.47;;;11.17;;
7517;SDS011;3800;48.922;9.444;2023-05-21T05:04:45;13.13;;;11.80;;
7517;SDS011;3800;48.922;9.444;2023-05-21T05:07:14;12.87;;;11.57;;
7517;SDS011;3800;48.922;9.444;2023-05-21T05:09:42;13.13;;;11.73;;
7517;SDS011;3800;48.922;9.444;2023-05-21T05:12:11;13.80;;;12.57;;
7517;SDS011;3800;48.922;9.444;2023-05-21T05:14:39;13.77;;;12.40;;
7517;SDS011;3800;48.922;9.444;2023-05-21T05:17:08;13.53;;;12.13;;
7517;SDS011;3800;48.922;9.444;2023-05-21T05:19:36;14.60;;;13.20;;
7517;SDS011;3800;48.922;9.444;2023-05-21T05:22:05;13.70;;;12.40;;
7517;SDS011;3800;48.922;9.444;2023-05-21T05:24:33;14.57;;;12.80;;
7517;SDS011;3800;48.922;9.444;2023-05-21T05:27:02;13.47;;;12.17;;
7517;SDS011;3800;48.922;9.444;2023-05-21T05:29:30;14.00;;;12.60;;
7517;SDS011;3800;48.922;9.444;2023-05-21T05:31:59;13.97;;;12.47;;
7517;SDS011;3800;48.922;9.444;2023-05-21T05:34:27;13.73;;;12.33;;
7517;SDS011;3800;48.922;9.444;2023-05-21T05:36:55;13.80;;;12.40;;
7517;SDS011;3800;48.922;9.444;2023-05-21T05:39:24;13.50;;;12.13;;
7517;SDS011;3800;48.922;9.444;2023-05-21T05:41:53;13.73;;;12.33;;
7517;SDS011;3800;48.922;9.444;2023-05-21T05:44:21;13.33;;;12.03;;
7517;SDS011;3800;48.922;9.444;2023-05-21T05:46:49;12.60;;;11.40;;
7517;SDS011;3800;48.922;9.444;2023-05-21T05:49:18;12.47;;;11.37;;
7517;SDS011;3800;48.922;9.444;2023-05-21T05:51:47;13.40;;;12.10;;
7517;SDS011;3800;48.922;9.444;2023-05-21T05:54:15;13.37;;;12.17;;
7517;SDS011;3800;48.922;9.444;2023-05-21T05:56:44;12.80;;;11.50;;
7517;SDS011;3800;48.922;9.444;2023-05-21T05:59:12;12.97;;;11.70;;
7517;SDS011;3800;48.922;9.444;2023-05-21T06:01:40;13.73;;;12.33;;
7517;SDS011;3800;48.922;9.444;2023-05-21T06:04:09;13.17;;;11.87;;
7517;SDS011;3800;48.922;9.444;2023-05-21T06:06:37;12.63;;;11.43;;
7517;SDS011;3800;48.922;9.444;2023-05-21T06:09:05;13.77;;;12.47;;
7517;SDS011;3800;48.922;9.444;2023-05-21T06:11:33;13.53;;;12.23;;
7517;SDS011;3800;48.922;9.444;2023-05-21T06:14:02;13.97;;;12.50;;
7517;SDS011;3800;48.922;9.444;2023-05-21T06:16:30;13.43;;;12.10;;
7517;SDS011;3800;48.922;9.444;2023-05-21T06:18:59;14.63;;;12.70;;
7517;SDS011;3800;48.922;9.444;2023-05-21T06:21:27;13.27;;;12.00;;
7517;SDS011;3800;48.922;9.444;2023-05-21T06:23:56;14.43;;;11.50;;
7517;SDS011;3800;48.922;9.444;2023-05-21T06:26:25;13.37;;;12.17;;
7517;SDS011;3800;48.922;9.444;2023-05-21T06:28:53;13.10;;;11.80;;
7517;SDS011;3800;48.922;9.444;2023-05-21T06:31:21;13.27;;;11.97;;
7517;SDS011;3800;48.922;9.444;2023-05-21T06:33:50;12.27;;;11.17;;
7517;SDS011;3800;48.922;9.444;2023-05-21T06:36:18;12.33;;;11.20;;
7517;SDS011;3800;48.922;9.444;2023-05-21T06:38:47;11.67;;;10.60;;
7517;SDS011;3800;48.922;9.444;2023-05-21T06:41:16;10.97;;;9.90;;
7517;SDS011;3800;48.922;9.444;2023-05-21T06:43:44;10.90;;;9.90;;
7517;SDS011;3800;48.922;9.444;2023-05-21T06:46:12;10.00;;;9.10;;
7517;SDS011;3800;48.922;9.444;2023-05-21T06:48:41;10.80;;;9.70;;
7517;SDS011;3800;48.922;9.444;2023-05-21T06:51:09;11.67;;;10.57;;
7517;SDS011;3800;48.922;9.444;2023-05-21T06:53:37;10.77;;;9.77;;
7517;SDS011;3800;48.922;9.444;2023-05-21T06:56:05;10.80;;;9.70;;
7517;SDS011;3800;48.922;9.444;2023-05-21T06:58:34;11.03;;;9.90;;
7517;SDS011;3800;48.922;9.444;2023-05-21T07:01:03;12.10;;;10.03;;
7517;SDS011;3800;48.922;9.444;2023-05-21T07:03:31;10.73;;;9.33;;
7517;SDS011;3800;48.922;9.444;2023-05-21T07:05:59;9.97;;;8.97;;
7517;SDS011;3800;48.922;9.444;2023-05-21T07:08:27;9.03;;;8.23;;
7517;SDS011;3800;48.922;9.444;2023-05-21T07:10:56;10.07;;;8.80;;
7517;SDS011;3800;48.922;9.444;2023-05-21T07:13:24;9.97;;;8.97;;
7517;SDS011;3800;48.922;9.444;2023-05-21T07:15:53;10.10;;;9.03;;
7517;SDS011;3800;48.922;9.444;2023-05-21T07:18:21;9.80;;;8.90;;
7517;SDS011;3800;48.922;9.444;2023-05-21T07:20:49;9.70;;;8.80;;
7517;SDS011;3800;48.922;9.444;2023-05-21T07:23:18;9.23;;;8.43;;
7517;SDS011;3800;48.922;9.444;2023-05-21T07:25:46;9.23;;;8.30;;
7517;SDS011;3800;48.922;9.444;2023-05-21T07:28:14;9.20;;;7.60;;
7517;SDS011;3800;48.922;9.444;2023-05-21T07:30:43;9.57;;;8.30;;
7517;SDS011;3800;48.922;9.444;2023-05-21T07:33:12;9.57;;;8.67;;
7517;SDS011;3800;48.922;9.444;2023-05-21T07:35:40;9.57;;;7.80;;
7517;SDS011;3800;48.922;9.444;2023-05-21T07:38:08;8.00;;;7.20;;
7517;SDS011;3800;48.922;9.444;2023-05-21T07:40:36;8.47;;;7.70;;
7517;SDS011;3800;48.922;9.444;2023-05-21T07:43:05;9.17;;;8.30;;
7517;SDS011;3800;48.922;9.444;2023-05-21T07:45:33;8.63;;;7.60;;
7517;SDS011;3800;48.922;9.444;2023-05-21T07:48:02;8.73;;;7.93;;
7517;SDS011;3800;48.922;9.444;2023-05-21T07:50:30;9.60;;;7.30;;
7517;SDS011;3800;48.922;9.444;2023-05-21T07:52:58;8.50;;;7.60;;
7517;SDS011;3800;48.922;9.444;2023-05-21T07:55:27;8.30;;;7.50;;
7517;SDS011;3800;48.922;9.444;2023-05-21T07:57:56;7.87;;;7.17;;
7517;SDS011;3800;48.922;9.444;2023-05-21T08:00:24;8.87;;;7.37;;
7517;SDS011;3800;48.922;9.444;2023-05-21T08:02:52;8.90;;;7.10;;
7517;SDS011;3800;48.922;9.444;2023-05-21T08:05:20;8.47;;;7.70;;
7517;SDS011;3800;48.922;9.444;2023-05-21T08:07:49;8.27;;;7.40;;
7517;SDS011;3800;48.922;9.444;2023-05-21T08:10:17;7.53;;;6.87;;
7517;SDS011;3800;48.922;9.444;2023-05-21T08:12:46;7.93;;;7.23;;
7517;SDS011;3800;48.922;9.444;2023-05-21T08:15:14;7.97;;;7.10;;
7517;SDS011;3800;48.922;9.444;2023-05-21T08:17:43;8.20;;;7.30;;
7517;SDS011;3800;48.922;9.444;2023-05-21T08:20:12;8.47;;;7.13;;
7517;SDS011;3800;48.922;9.444;2023-05-21T08:22:40;8.50;;;7.70;;
7517;SDS011;3800;48.922;9.444;2023-05-21T08:25:08;8.50;;;7.37;;
7517;SDS011;3800;48.922;9.444;2023-05-21T08:27:36;8.20;;;7.40;;
7517;SDS011;3800;48.922;9.444;2023-05-21T08:30:05;7.70;;;7.00;;
7517;SDS011;3800;48.922;9.444;2023-05-21T08:32:34;9.57;;;7.03;;
7517;SDS011;3800;48.922;9.444;2023-05-21T08:35:02;8.10;;;7.30;;
7517;SDS011;3800;48.922;9.444;2023-05-21T08:37:31;8.17;;;7.00;;
7517;SDS011;3800;48.922;9.444;2023-05-21T08:39:59;7.97;;;7.20;;
7517;SDS011;3800;48.922;9.444;2023-05-21T08:42:34;8.10;;;7.30;;
7517;SDS011;3800;48.922;9.444;2023-05-21T08:45:03;7.93;;;7.13;;
7517;SDS011;3800;48.922;9.444;2023-05-21T08:47:33;8.00;;;7.30;;
7517;SDS011;3800;48.922;9.444;2023-05-21T08:50:03;8.10;;;7.40;;
7517;SDS011;3800;48.922;9.444;2023-05-21T08:52:30;8.03;;;7.33;;
7517;SDS011;3800;48.922;9.444;2023-05-21T08:54:58;8.10;;;7.30;;
7517;SDS011;3800;48.922;9.444;2023-05-21T08:57:27;8.33;;;7.53;;
7517;SDS011;3800;48.922;9.444;2023-05-21T08:59:55;7.40;;;6.70;;
7517;SDS011;3800;48.922;9.444;2023-05-21T09:02:23;10.17;;;7.03;;
7517;SDS011;3800;48.922;9.444;2023-05-21T09:04:52;8.30;;;7.40;;
7517;SDS011;3800;48.922;9.444;2023-05-21T09:07:24;7.63;;;6.90;;
7517;SDS011;3800;48.922;9.444;2023-05-21T09:09:54;7.93;;;6.80;;
7517;SDS011;3800;48.922;9.444;2023-05-21T09:12:22;8.20;;;7.40;;
7517;SDS011;3800;48.922;9.444;2023-05-21T09:14:50;7.13;;;6.47;;
7517;SDS011;3800;48.922;9.444;2023-05-21T09:17:18;7.40;;;6.70;;
7517;SDS011;3800;48.922;9.444;2023-05-21T09:20:03;7.73;;;7.07;;
7517;SDS011;3800;48.922;9.444;2023-05-21T09:22:36;7.50;;;6.80;;
7517;SDS011;3800;48.922;9.444;2023-05-21T09:25:12;7.50;;;6.80;;
7517;SDS011;3800;48.922;9.444;2023-05-21T09:27:39;7.67;;;6.97;;
7517;SDS011;3800;48.922;9.444;2023-05-21T09:30:08;8.00;;;7.20;;
7517;SDS011;3800;48.922;9.444;2023-05-21T09:32:36;7.93;;;7.17;;
7517;SDS011;3800;48.922;9.444;2023-05-21T09:35:06;7.80;;;7.00;;
7517;SDS011;3800;48.922;9.444;2023-05-21T09:37:40;7.27;;;6.57;;
7517;SDS011;3800;48.922;9.444;2023-05-21T09:40:13;7.70;;;6.90;;
7517;SDS011;3800;48.922;9.444;2023-05-21T09:42:44;7.47;;;6.77;;
7517;SDS011;3800;48.922;9.444;2023-05-21T09:45:16;8.17;;;7.40;;
7517;SDS011;3800;48.922;9.444;2023-05-21T09:47:47;7.50;;;6.80;;
7517;SDS011;3800;48.922;9.444;2023-05-21T09:50:16;7.53;;;6.73;;
7517;SDS011;3800;48.922;9.444;2023-05-21T09:52:45;10.63;;;9.20;;
7517;SDS011;3800;48.922;9.444;2023-05-21T09:55:13;8.10;;;7.33;;
7517;SDS011;3800;48.922;9.444;2023-05-21T09:57:42;9.27;;;7.80;;
7517;SDS011;3800;48.922;9.444;2023-05-21T10:00:16;11.77;;;10.40;;
7517;SDS011;3800;48.922;9.444;2023-05-21T10:02:46;8.57;;;6.90;;
7517;SDS011;3800;48.922;9.444;2023-05-21T10:05:15;7.93;;;6.87;;
7517;SDS011;3800;48.922;9.444;2023-05-21T10:07:44;7.37;;;6.67;;
7517;SDS011;3800;48.922;9.444;2023-05-21T10:10:13;7.77;;;7.03;;
7517;SDS011;3800;48.922;9.444;2023-05-21T10:12:45;7.50;;;6.67;;
7517;SDS011;3800;48.922;9.444;2023-05-21T10:15:13;8.10;;;7.40;;
7517;SDS011;3800;48.922;9.444;2023-05-21T10:17:41;8.10;;;7.00;;
7517;SDS011;3800;48.922;9.444;2023-05-21T10:20:10;8.03;;;7.23;;
7517;SDS011;3800;48.922;9.444;2023-05-21T10:22:39;7.80;;;7.10;;
7517;SDS011;3800;48.922;9.444;2023-05-21T10:25:07;8.43;;;7.57;;
7517;SDS011;3800;48.922;9.444;2023-05-21T10:27:35;8.67;;;7.27;;
7517;SDS011;3800;48.922;9.444;2023-05-21T10:30:04;7.20;;;6.50;;
7517;SDS011;3800;48.922;9.444;2023-05-21T10:32:33;6.97;;;6.27;;
7517;SDS011;3800;48.922;9.444;2023-05-21T10:35:01;6.83;;;6.23;;
7517;SDS011;3800;48.922;9.444;2023-05-21T10:37:30;7.07;;;6.47;;
7517;SDS011;3800;48.922;9.444;2023-05-21T10:39:58;7.20;;;6.50;;
7517;SDS011;3800;48.922;9.444;2023-05-21T10:45:15;7.00;;;6.30;;
7517;SDS011;3800;48.922;9.444;2023-05-21T10:48:15;6.77;;;6.17;;
7517;SDS011;3800;48.922;9.444;2023-05-21T10:51:01;7.87;;;6.33;;
7517;SDS011;3800;48.922;9.444;2023-05-21T10:53:49;9.33;;;6.50;;
7517;SDS011;3800;48.922;9.444;2023-05-21T10:56:40;7.53;;;6.80;;
7517;SDS011;3800;48.922;9.444;2023-05-21T10:59:28;7.10;;;6.43;;
7517;SDS011;3800;48.922;9.444;2023-05-21T11:01:58;7.13;;;6.10;;
7517;SDS011;3800;48.922;9.444;2023-05-21T11:04:27;7.13;;;6.53;;
7517;SDS011;3800;48.922;9.444;2023-05-21T11:06:57;7.87;;;6.37;;
7517;SDS011;3800;48.922;9.444;2023-05-21T11:09:23;7.07;;;6.37;;
7517;SDS011;3800;48.922;9.444;2023-05-21T11:11:56;6.83;;;6.23;;
7517;SDS011;3800;48.922;9.444;2023-05-21T11:14:30;6.47;;;5.87;;
7517;SDS011;3800;48.922;9.444;2023-05-21T11:16:59;6.17;;;5.57;;
7517;SDS011;3800;48.922;9.444;2023-05-21T11:19:33;6.57;;;5.90;;
7517;SDS011;3800;48.922;9.444;2023-05-21T11:22:05;6.00;;;5.50;;
7517;SDS011;3800;48.922;9.444;2023-05-21T11:24:36;6.57;;;5.60;;
7517;SDS011;3800;48.922;9.444;2023-05-21T11:27:04;6.77;;;5.07;;
7517;SDS011;3800;48.922;9.444;2023-05-21T11:29:35;5.90;;;4.90;;
7517;SDS011;3800;48.922;9.444;2023-05-21T11:32:06;5.90;;;5.23;;
7517;SDS011;3800;48.922;9.444;2023-05-21T11:34:37;6.33;;;5.40;;
7517;SDS011;3800;48.922;9.444;2023-05-21T11:39:50;6.43;;;5.70;;
7517;SDS011;3800;48.922;9.444;2023-05-21T11:45:00;5.80;;;5.27;;
7517;SDS011;3800;48.922;9.444;2023-05-21T11:47:27;5.70;;;4.90;;
7517;SDS011;3800;48.922;9.444;2023-05-21T11:49:56;5.47;;;4.97;;
7517;SDS011;3800;48.922;9.444;2023-05-21T11:52:27;8.03;;;5.20;;
7517;SDS011;3800;48.922;9.444;2023-05-21T11:54:54;5.20;;;4.57;;
7517;SDS011;3800;48.922;9.444;2023-05-21T11:57:25;7.80;;;5.37;;
7517;SDS011;3800;48.922;9.444;2023-05-21T11:59:52;5.50;;;5.00;;
7517;SDS011;3800;48.922;9.444;2023-05-21T12:02:21;4.83;;;4.43;;
7517;SDS011;3800;48.922;9.444;2023-05-21T12:04:49;5.00;;;4.40;;
7517;SDS011;3800;48.922;9.444;2023-05-21T12:07:18;5.10;;;4.53;;
7517;SDS011;3800;48.922;9.444;2023-05-21T12:09:46;6.37;;;4.47;;
7517;SDS011;3800;48.922;9.444;2023-05-21T12:12:17;5.30;;;4.80;;
7517;SDS011;3800;48.922;9.444;2023-05-21T12:14:45;5.33;;;4.83;;
7517;SDS011;3800;48.922;9.444;2023-05-21T12:17:15;4.97;;;4.30;;
7517;SDS011;3800;48.922;9.444;2023-05-21T12:19:43;5.57;;;4.90;;
7517;SDS011;3800;48.922;9.444;2023-05-21T12:22:11;5.47;;;4.73;;
7517;SDS011;3800;48.922;9.444;2023-05-21T12:24:39;5.37;;;4.87;;
7517;SDS011;3800;48.922;9.444;2023-05-21T12:27:08;4.80;;;4.40;;
7517;SDS011;3800;48.922;9.444;2023-05-21T12:29:36;5.50;;;4.70;;
7517;SDS011;3800;48.922;9.444;2023-05-21T12:32:06;7.53;;;5.23;;
7517;SDS011;3800;48.922;9.444;2023-05-21T12:37:19;4.80;;;4.40;;
7517;SDS011;3800;48.922;9.444;2023-05-21T12:39:48;5.03;;;4.53;;
7517;SDS011;3800;48.922;9.444;2023-05-21T12:42:16;8.93;;;4.80;;
7517;SDS011;3800;48.922;9.444;2023-05-21T12:44:52;5.27;;;4.43;;
7517;SDS011;3800;48.922;9.444;2023-05-21T12:47:23;5.07;;;4.57;;
7517;SDS011;3800;48.922;9.444;2023-05-21T12:49:53;4.80;;;4.33;;
7517;SDS011;3800;48.922;9.444;2023-05-21T12:52:20;5.00;;;4.50;;
7517;SDS011;3800;48.922;9.444;2023-05-21T12:54:50;6.43;;;4.17;;
7517;SDS011;3800;48.922;9.444;2023-05-21T12:57:19;4.90;;;4.50;;
7517;SDS011;3800;48.922;9.444;2023-05-21T12:59:51;4.70;;;4.30;;
7517;SDS011;3800;48.922;9.444;2023-05-21T13:02:20;7.80;;;4.43;;
7517;SDS011;3800;48.922;9.444;2023-05-21T13:04:52;5.47;;;4.53;;
7517;SDS011;3800;48.922;9.444;2023-05-21T13:07:25;5.13;;;4.63;;
7517;SDS011;3800;48.922;9.444;2023-05-21T13:09:53;4.90;;;4.50;;
7517;SDS011;3800;48.922;9.444;2023-05-21T13:12:22;6.53;;;4.63;;
7517;SDS011;3800;48.922;9.444;2023-05-21T13:14:52;5.13;;;4.70;;
7517;SDS011;3800;48.922;9.444;2023-05-21T13:17:20;6.73;;;4.80;;
7517;SDS011;3800;48.922;9.444;2023-05-21T13:22:35;6.07;;;4.67;;
7517;SDS011;3800;48.922;9.444;2023-05-21T13:25:03;5.83;;;5.23;;
7517;SDS011;3800;48.922;9.444;2023-05-21T13:27:32;6.50;;;5.20;;
7517;SDS011;3800;48.922;9.444;2023-05-21T13:30:00;6.20;;;5.10;;
7517;SDS011;3800;48.922;9.444;2023-05-21T13:32:28;5.90;;;4.90;;
7517;SDS011;3800;48.922;9.444;2023-05-21T13:34:57;5.07;;;4.67;;
7517;SDS011;3800;48.922;9.444;2023-05-21T13:37:25;5.83;;;5.23;;
7517;SDS011;3800;48.922;9.444;2023-05-21T13:39:54;5.53;;;5.03;;
7517;SDS011;3800;48.922;9.444;2023-05-21T13:42:22;6.00;;;5.40;;
7517;SDS011;3800;48.922;9.444;2023-05-21T13:44:50;6.83;;;5.60;;
7517;SDS011;3800;48.922;9.444;2023-05-21T13:47:18;5.50;;;5.07;;
7517;SDS011;3800;48.922;9.444;2023-05-21T13:49:47;5.87;;;5.27;;
7517;SDS011;3800;48.922;9.444;2023-05-21T13:52:16;5.77;;;5.17;;
7517;SDS011;3800;48.922;9.444;2023-05-21T13:54:44;5.67;;;5.13;;
7517;SDS011;3800;48.922;9.444;2023-05-21T13:57:13;5.63;;;5.13;;
7517;SDS011;3800;48.922;9.444;2023-05-21T13:59:41;6.47;;;5.40;;
7517;SDS011;3800;48.922;9.444;2023-05-21T14:02:10;6.50;;;5.90;;
7517;SDS011;3800;48.922;9.444;2023-05-21T14:04:38;6.73;;;6.07;;
7517;SDS011;3800;48.922;9.444;2023-05-21T14:07:06;6.77;;;6.07;;
7517;SDS011;3800;48.922;9.444;2023-05-21T14:09:34;5.83;;;5.33;;
7517;SDS011;3800;48.922;9.444;2023-05-21T14:12:03;5.80;;;5.30;;
7517;SDS011;3800;48.922;9.444;2023-05-21T14:14:31;6.47;;;5.37;;
7517;SDS011;3800;48.922;9.444;2023-05-21T14:16:59;6.40;;;5.63;;
7517;SDS011;3800;48.922;9.444;2023-05-21T14:19:28;5.67;;;5.17;;
7517;SDS011;3800;48.922;9.444;2023-05-21T14:21:57;5.97;;;5.40;;
7517;SDS011;3800;48.922;9.444;2023-05-21T14:24:27;5.67;;;5.17;;
7517;SDS011;3800;48.922;9.444;2023-05-21T14:26:55;6.87;;;5.53;;
7517;SDS011;3800;48.922;9.444;2023-05-21T14:29:23;7.83;;;5.77;;
7517;SDS011;3800;48.922;9.444;2023-05-21T14:31:52;6.67;;;5.33;;
7517;SDS011;3800;48.922;9.444;2023-05-21T14:34:21;5.93;;;5.00;;
7517;SDS011;3800;48.922;9.444;2023-05-21T14:36:50;5.90;;;5.40;;
7517;SDS011;3800;48.922;9.444;2023-05-21T14:39:18;6.03;;;5.30;;
7517;SDS011;3800;48.922;9.444;2023-05-21T14:41:46;5.80;;;5.30;;
7517;SDS011;3800;48.922;9.444;2023-05-21T14:44:14;9.47;;;5.60;;
7517;SDS011;3800;48.922;9.444;2023-05-21T14:46:43;6.50;;;5.30;;
7517;SDS011;3800;48.922;9.444;2023-05-21T14:49:11;7.20;;;5.33;;
7517;SDS011;3800;48.922;9.444;2023-05-21T14:51:39;6.80;;;5.53;;
7517;SDS011;3800;48.922;9.444;2023-05-21T14:54:07;6.10;;;5.50;;
7517;SDS011;3800;48.922;9.444;2023-05-21T14:56:36;6.60;;;6.00;;
7517;SDS011;3800;48.922;9.444;2023-05-21T14:59:04;7.03;;;5.80;;
7517;SDS011;3800;48.922;9.444;2023-05-21T15:01:33;6.67;;;6.07;;
7517;SDS011;3800;48.922;9.444;2023-05-21T15:04:01;6.67;;;5.97;;
7517;SDS011;3800;48.922;9.444;2023-05-21T15:06:30;6.27;;;5.63;;
7517;SDS011;3800;48.922;9.444;2023-05-21T15:08:59;8.20;;;6.40;;
7517;SDS011;3800;48.922;9.444;2023-05-21T15:11:28;6.57;;;5.93;;
7517;SDS011;3800;48.922;9.444;2023-05-21T15:13:56;6.23;;;5.63;;
7517;SDS011;3800;48.922;9.444;2023-05-21T15:16:25;6.00;;;5.40;;
7517;SDS011;3800;48.922;9.444;2023-05-21T15:18:54;5.90;;;5.30;;
7517;SDS011;3800;48.922;9.444;2023-05-21T15:21:23;7.80;;;6.17;;
7517;SDS011;3800;48.922;9.444;2023-05-21T15:23:51;6.90;;;6.20;;
7517;SDS011;3800;48.922;9.444;2023-05-21T15:26:20;6.70;;;6.10;;